sensor_id;sensor_type;location;lat;lon;timestamp;P1;durP1;ratioP1;P2;durP2;ratioP2
22470;SDS011;11402;51.374;6.594;2023-04-15T00:01:57;12.18;;;4.50;;
22470;SDS011;11402;51.374;6.594;2023-04-15T00:04:23;6.00;;;4.20;;
22470;SDS011;11402;51.374;6.594;2023-04-15T00:06:52;9.98;;;4.80;;
22470;SDS011;11402;51.374;6.594;2023-04-15T00:09:18;11.15;;;5.28;;
22470;SDS011;11402;51.374;6.594;2023-04-15T00:11:44;7.80;;;4.78;;
22470;SDS011;11402;51.374;6.594;2023-04-15T00:14:11;13.48;;;6.10;;
22470;SDS011;11402;51.374;6.594;2023-04-15T00:16:37;13.63;;;7.97;;
22470;SDS011;11402;51.374;6.594;2023-04-15T00:19:02;15.02;;;8.35;;
22470;SDS011;11402;51.374;6.594;2023-04-15T00:21:28;12.77;;;7.43;;
22470;SDS011;11402;51.374;6.594;2023-04-15T00:23:54;14.48;;;8.70;;
22470;SDS011;11402;51.374;6.594;2023-04-15T00:26:20;16.42;;;7.75;;
22470;SDS011;11402;51.374;6.594;2023-04-15T00:28:46;15.00;;;9.57;;
22470;SDS011;11402;51.374;6.594;2023-04-15T00:31:11;13.35;;;7.80;;
22470;SDS011;11402;51.374;6.594;2023-04-15T00:33:37;13.88;;;8.45;;
22470;SDS011;11402;51.374;6.594;2023-04-15T00:36:03;15.77;;;8.43;;
22470;SDS011;11402;51.374;6.594;2023-04-15T00:38:30;15.18;;;7.65;;
22470;SDS011;11402;51.374;6.594;2023-04-15T00:40:56;12.73;;;7.60;;
22470;SDS011;11402;51.374;6.594;2023-04-15T00:43:21;12.82;;;7.38;;
22470;SDS011;11402;51.374;6.594;2023-04-15T00:45:47;10.45;;;7.00;;
22470;SDS011;11402;51.374;6.594;2023-04-15T00:48:12;11.70;;;6.93;;
22470;SDS011;11402;51.374;6.594;2023-04-15T00:50:38;12.43;;;6.72;;
22470;SDS011;11402;51.374;6.594;2023-04-15T00:53:03;13.10;;;7.72;;
22470;SDS011;11402;51.374;6.594;2023-04-15T00:55:29;12.88;;;7.30;;
22470;SDS011;11402;51.374;6.594;2023-04-15T00:57:55;12.80;;;7.60;;
22470;SDS011;11402;51.374;6.594;2023-04-15T01:00:21;14.23;;;7.03;;
22470;SDS011;11402;51.374;6.594;2023-04-15T01:02:47;11.60;;;7.30;;
22470;SDS011;11402;51.374;6.594;2023-04-15T01:05:14;12.38;;;7.53;;
22470;SDS011;11402;51.374;6.594;2023-04-15T01:07:42;11.32;;;6.97;;
22470;SDS011;11402;51.374;6.594;2023-04-15T01:10:08;15.38;;;7.68;;
22470;SDS011;11402;51.374;6.594;2023-04-15T01:12:34;11.70;;;7.63;;
22470;SDS011;11402;51.374;6.594;2023-04-15T01:15:01;14.57;;;9.20;;
22470;SDS011;11402;51.374;6.594;2023-04-15T01:17:28;13.90;;;8.02;;
22470;SDS011;11402;51.374;6.594;2023-04-15T01:19:54;11.68;;;7.53;;
22470;SDS011;11402;51.374;6.594;2023-04-15T01:22:22;14.52;;;8.20;;
22470;SDS011;11402;51.374;6.594;2023-04-15T01:27:38;12.00;;;7.88;;
22470;SDS011;11402;51.374;6.594;2023-04-15T01:30:06;11.30;;;7.30;;
22470;SDS011;11402;51.374;6.594;2023-04-15T01:32:32;14.77;;;8.48;;
22470;SDS011;11402;51.374;6.594;2023-04-15T01:34:58;11.20;;;7.57;;
22470;SDS011;11402;51.374;6.594;2023-04-15T01:37:24;18.65;;;7.78;;
22470;SDS011;11402;51.374;6.594;2023-04-15T01:39:50;11.25;;;7.55;;
22470;SDS011;11402;51.374;6.594;2023-04-15T01:42:16;18.60;;;8.82;;
22470;SDS011;11402;51.374;6.594;2023-04-15T01:44:41;15.57;;;9.18;;
22470;SDS011;11402;51.374;6.594;2023-04-15T01:47:07;19.17;;;10.10;;
22470;SDS011;11402;51.374;6.594;2023-04-15T01:49:32;13.98;;;9.10;;
22470;SDS011;11402;51.374;6.594;2023-04-15T01:51:58;16.95;;;9.60;;
22470;SDS011;11402;51.374;6.594;2023-04-15T01:54:24;14.30;;;8.85;;
22470;SDS011;11402;51.374;6.594;2023-04-15T01:56:51;14.10;;;9.38;;
22470;SDS011;11402;51.374;6.594;2023-04-15T01:59:17;14.40;;;8.80;;
22470;SDS011;11402;51.374;6.594;2023-04-15T02:01:42;15.50;;;9.35;;
22470;SDS011;11402;51.374;6.594;2023-04-15T02:04:09;15.13;;;9.10;;
22470;SDS011;11402;51.374;6.594;2023-04-15T02:06:40;15.25;;;8.82;;
22470;SDS011;11402;51.374;6.594;2023-04-15T02:09:07;16.58;;;8.98;;
22470;SDS011;11402;51.374;6.594;2023-04-15T02:11:33;15.32;;;9.77;;
22470;SDS011;11402;51.374;6.594;2023-04-15T02:14:01;15.43;;;9.20;;
22470;SDS011;11402;51.374;6.594;2023-04-15T02:16:28;18.00;;;9.32;;
22470;SDS011;11402;51.374;6.594;2023-04-15T02:18:53;16.67;;;9.68;;
22470;SDS011;11402;51.374;6.594;2023-04-15T02:21:19;15.25;;;9.52;;
22470;SDS011;11402;51.374;6.594;2023-04-15T02:23:44;17.35;;;9.40;;
22470;SDS011;11402;51.374;6.594;2023-04-15T02:26:12;17.20;;;10.07;;
22470;SDS011;11402;51.374;6.594;2023-04-15T02:28:37;14.23;;;9.40;;
22470;SDS011;11402;51.374;6.594;2023-04-15T02:31:06;17.00;;;9.40;;
22470;SDS011;11402;51.374;6.594;2023-04-15T02:33:32;20.52;;;10.50;;
22470;SDS011;11402;51.374;6.594;2023-04-15T02:35:57;16.73;;;10.82;;
22470;SDS011;11402;51.374;6.594;2023-04-15T02:38:23;18.38;;;11.90;;
22470;SDS011;11402;51.374;6.594;2023-04-15T02:40:49;19.08;;;11.68;;
22470;SDS011;11402;51.374;6.594;2023-04-15T02:43:15;17.08;;;11.98;;
22470;SDS011;11402;51.374;6.594;2023-04-15T02:45:41;16.92;;;11.85;;
22470;SDS011;11402;51.374;6.594;2023-04-15T02:48:07;14.18;;;9.45;;
22470;SDS011;11402;51.374;6.594;2023-04-15T02:50:33;14.40;;;9.95;;
22470;SDS011;11402;51.374;6.594;2023-04-15T02:52:59;18.42;;;10.43;;
22470;SDS011;11402;51.374;6.594;2023-04-15T02:55:25;17.75;;;10.70;;
22470;SDS011;11402;51.374;6.594;2023-04-15T02:57:51;16.17;;;10.52;;
22470;SDS011;11402;51.374;6.594;2023-04-15T03:00:16;16.20;;;10.52;;
22470;SDS011;11402;51.374;6.594;2023-04-15T03:02:42;15.63;;;10.88;;
22470;SDS011;11402;51.374;6.594;2023-04-15T03:05:10;15.68;;;10.98;;
22470;SDS011;11402;51.374;6.594;2023-04-15T03:07:39;18.70;;;10.90;;
22470;SDS011;11402;51.374;6.594;2023-04-15T03:10:05;19.50;;;11.52;;
22470;SDS011;11402;51.374;6.594;2023-04-15T03:12:31;16.80;;;11.00;;
22470;SDS011;11402;51.374;6.594;2023-04-15T03:14:57;18.17;;;10.52;;
22470;SDS011;11402;51.374;6.594;2023-04-15T03:17:24;15.13;;;11.35;;
22470;SDS011;11402;51.374;6.594;2023-04-15T03:19:49;19.55;;;12.25;;
22470;SDS011;11402;51.374;6.594;2023-04-15T03:22:15;19.75;;;12.27;;
22470;SDS011;11402;51.374;6.594;2023-04-15T03:24:40;17.30;;;11.43;;
22470;SDS011;11402;51.374;6.594;2023-04-15T03:27:06;18.02;;;12.35;;
22470;SDS011;11402;51.374;6.594;2023-04-15T03:29:32;18.08;;;11.93;;
22470;SDS011;11402;51.374;6.594;2023-04-15T03:31:57;20.77;;;13.82;;
22470;SDS011;11402;51.374;6.594;2023-04-15T03:34:23;21.42;;;13.60;;
22470;SDS011;11402;51.374;6.594;2023-04-15T03:36:49;21.52;;;15.05;;
22470;SDS011;11402;51.374;6.594;2023-04-15T03:39:14;17.58;;;13.60;;
22470;SDS011;11402;51.374;6.594;2023-04-15T03:41:40;19.75;;;14.43;;
22470;SDS011;11402;51.374;6.594;2023-04-15T03:44:06;22.33;;;14.23;;
22470;SDS011;11402;51.374;6.594;2023-04-15T03:46:31;19.25;;;13.93;;
22470;SDS011;11402;51.374;6.594;2023-04-15T03:48:57;20.10;;;14.13;;
22470;SDS011;11402;51.374;6.594;2023-04-15T03:51:23;17.77;;;13.57;;
22470;SDS011;11402;51.374;6.594;2023-04-15T03:53:48;21.33;;;14.20;;
22470;SDS011;11402;51.374;6.594;2023-04-15T03:56:14;24.30;;;14.23;;
22470;SDS011;11402;51.374;6.594;2023-04-15T03:58:40;24.45;;;13.70;;
22470;SDS011;11402;51.374;6.594;2023-04-15T04:01:05;22.60;;;15.57;;
22470;SDS011;11402;51.374;6.594;2023-04-15T04:03:31;25.48;;;15.40;;
22470;SDS011;11402;51.374;6.594;2023-04-15T04:05:57;21.05;;;14.10;;
22470;SDS011;11402;51.374;6.594;2023-04-15T04:08:22;20.13;;;13.77;;
22470;SDS011;11402;51.374;6.594;2023-04-15T04:10:48;20.73;;;14.85;;
22470;SDS011;11402;51.374;6.594;2023-04-15T04:13:14;21.77;;;14.40;;
22470;SDS011;11402;51.374;6.594;2023-04-15T04:15:39;21.70;;;14.82;;
22470;SDS011;11402;51.374;6.594;2023-04-15T04:18:05;21.20;;;15.05;;
22470;SDS011;11402;51.374;6.594;2023-04-15T04:20:31;23.70;;;15.23;;
22470;SDS011;11402;51.374;6.594;2023-04-15T04:22:57;21.95;;;14.07;;
22470;SDS011;11402;51.374;6.594;2023-04-15T04:25:23;22.20;;;14.63;;
22470;SDS011;11402;51.374;6.594;2023-04-15T04:27:48;18.42;;;13.52;;
22470;SDS011;11402;51.374;6.594;2023-04-15T04:30:14;20.75;;;14.07;;
22470;SDS011;11402;51.374;6.594;2023-04-15T04:32:40;24.80;;;14.00;;
22470;SDS011;11402;51.374;6.594;2023-04-15T04:35:05;17.25;;;13.25;;
22470;SDS011;11402;51.374;6.594;2023-04-15T04:37:31;18.98;;;13.30;;
22470;SDS011;11402;51.374;6.594;2023-04-15T04:39:57;21.02;;;13.50;;
22470;SDS011;11402;51.374;6.594;2023-04-15T04:42:22;17.25;;;12.90;;
22470;SDS011;11402;51.374;6.594;2023-04-15T04:44:48;21.80;;;14.25;;
22470;SDS011;11402;51.374;6.594;2023-04-15T04:47:13;23.05;;;14.23;;
22470;SDS011;11402;51.374;6.594;2023-04-15T04:49:39;17.92;;;13.70;;
22470;SDS011;11402;51.374;6.594;2023-04-15T04:52:05;20.77;;;13.52;;
22470;SDS011;11402;51.374;6.594;2023-04-15T04:54:31;18.08;;;13.38;;
22470;SDS011;11402;51.374;6.594;2023-04-15T04:56:56;23.45;;;13.73;;
22470;SDS011;11402;51.374;6.594;2023-04-15T04:59:22;20.42;;;12.70;;
22470;SDS011;11402;51.374;6.594;2023-04-15T05:01:48;23.35;;;14.23;;
22470;SDS011;11402;51.374;6.594;2023-04-15T05:04:14;20.83;;;14.07;;
22470;SDS011;11402;51.374;6.594;2023-04-15T05:06:39;19.52;;;13.32;;
22470;SDS011;11402;51.374;6.594;2023-04-15T05:09:05;22.95;;;14.60;;
22470;SDS011;11402;51.374;6.594;2023-04-15T05:11:31;20.25;;;14.63;;
22470;SDS011;11402;51.374;6.594;2023-04-15T05:13:57;20.10;;;13.80;;
22470;SDS011;11402;51.374;6.594;2023-04-15T05:16:23;25.00;;;14.52;;
22470;SDS011;11402;51.374;6.594;2023-04-15T05:18:49;22.00;;;15.13;;
22470;SDS011;11402;51.374;6.594;2023-04-15T05:21:15;22.95;;;13.82;;
22470;SDS011;11402;51.374;6.594;2023-04-15T05:23:41;25.60;;;15.00;;
22470;SDS011;11402;51.374;6.594;2023-04-15T05:26:07;24.63;;;14.52;;
22470;SDS011;11402;51.374;6.594;2023-04-15T05:28:33;20.30;;;13.95;;
22470;SDS011;11402;51.374;6.594;2023-04-15T05:30:58;19.67;;;14.20;;
22470;SDS011;11402;51.374;6.594;2023-04-15T05:33:24;19.55;;;14.43;;
22470;SDS011;11402;51.374;6.594;2023-04-15T05:35:50;21.67;;;14.15;;
22470;SDS011;11402;51.374;6.594;2023-04-15T05:38:16;19.58;;;13.98;;
22470;SDS011;11402;51.374;6.594;2023-04-15T05:40:41;21.08;;;13.95;;
22470;SDS011;11402;51.374;6.594;2023-04-15T05:43:07;20.67;;;14.18;;
22470;SDS011;11402;51.374;6.594;2023-04-15T05:45:32;20.33;;;14.57;;
22470;SDS011;11402;51.374;6.594;2023-04-15T05:47:58;19.42;;;13.40;;
22470;SDS011;11402;51.374;6.594;2023-04-15T05:50:23;22.25;;;13.57;;
22470;SDS011;11402;51.374;6.594;2023-04-15T05:52:49;20.25;;;14.57;;
22470;SDS011;11402;51.374;6.594;2023-04-15T05:55:15;20.80;;;14.00;;
22470;SDS011;11402;51.374;6.594;2023-04-15T05:57:41;20.60;;;14.77;;
22470;SDS011;11402;51.374;6.594;2023-04-15T06:00:06;24.08;;;14.25;;
22470;SDS011;11402;51.374;6.594;2023-04-15T06:02:32;22.52;;;14.25;;
22470;SDS011;11402;51.374;6.594;2023-04-15T06:04:58;20.38;;;15.00;;
22470;SDS011;11402;51.374;6.594;2023-04-15T06:07:24;20.42;;;13.60;;
22470;SDS011;11402;51.374;6.594;2023-04-15T06:09:50;22.40;;;14.35;;
22470;SDS011;11402;51.374;6.594;2023-04-15T06:12:16;21.60;;;14.02;;
22470;SDS011;11402;51.374;6.594;2023-04-15T06:14:41;19.25;;;14.27;;
22470;SDS011;11402;51.374;6.594;2023-04-15T06:17:07;22.90;;;15.10;;
22470;SDS011;11402;51.374;6.594;2023-04-15T06:19:33;21.52;;;14.25;;
22470;SDS011;11402;51.374;6.594;2023-04-15T06:22:00;18.88;;;14.15;;
22470;SDS011;11402;51.374;6.594;2023-04-15T06:24:26;23.27;;;13.55;;
22470;SDS011;11402;51.374;6.594;2023-04-15T06:26:52;20.00;;;14.85;;
22470;SDS011;11402;51.374;6.594;2023-04-15T06:29:18;22.98;;;15.13;;
22470;SDS011;11402;51.374;6.594;2023-04-15T06:31:43;19.13;;;14.52;;
22470;SDS011;11402;51.374;6.594;2023-04-15T06:34:11;20.63;;;15.18;;
22470;SDS011;11402;51.374;6.594;2023-04-15T06:36:36;22.13;;;16.17;;
22470;SDS011;11402;51.374;6.594;2023-04-15T06:39:02;21.90;;;16.02;;
22470;SDS011;11402;51.374;6.594;2023-04-15T06:41:28;22.40;;;16.52;;
22470;SDS011;11402;51.374;6.594;2023-04-15T06:43:53;25.10;;;16.55;;
22470;SDS011;11402;51.374;6.594;2023-04-15T06:46:19;24.48;;;17.23;;
22470;SDS011;11402;51.374;6.594;2023-04-15T06:48:44;25.70;;;17.85;;
22470;SDS011;11402;51.374;6.594;2023-04-15T06:51:10;22.58;;;17.70;;
22470;SDS011;11402;51.374;6.594;2023-04-15T06:53:35;24.67;;;17.45;;
22470;SDS011;11402;51.374;6.594;2023-04-15T06:56:05;22.17;;;15.45;;
22470;SDS011;11402;51.374;6.594;2023-04-15T06:58:32;22.27;;;17.13;;
22470;SDS011;11402;51.374;6.594;2023-04-15T07:00:58;23.77;;;15.98;;
22470;SDS011;11402;51.374;6.594;2023-04-15T07:03:23;22.35;;;16.65;;
22470;SDS011;11402;51.374;6.594;2023-04-15T07:05:49;23.00;;;16.90;;
22470;SDS011;11402;51.374;6.594;2023-04-15T07:08:14;22.33;;;16.40;;
22470;SDS011;11402;51.374;6.594;2023-04-15T07:10:40;21.05;;;16.50;;
22470;SDS011;11402;51.374;6.594;2023-04-15T07:13:06;22.80;;;16.60;;
22470;SDS011;11402;51.374;6.594;2023-04-15T07:15:32;21.52;;;15.82;;
22470;SDS011;11402;51.374;6.594;2023-04-15T07:17:58;21.90;;;15.98;;
22470;SDS011;11402;51.374;6.594;2023-04-15T07:20:24;19.63;;;14.55;;
22470;SDS011;11402;51.374;6.594;2023-04-15T07:22:49;22.40;;;15.13;;
22470;SDS011;11402;51.374;6.594;2023-04-15T07:25:15;20.77;;;14.68;;
22470;SDS011;11402;51.374;6.594;2023-04-15T07:27:41;18.42;;;12.60;;
22470;SDS011;11402;51.374;6.594;2023-04-15T07:30:07;16.35;;;12.88;;
22470;SDS011;11402;51.374;6.594;2023-04-15T07:32:33;18.33;;;11.73;;
22470;SDS011;11402;51.374;6.594;2023-04-15T07:34:59;15.13;;;11.50;;
22470;SDS011;11402;51.374;6.594;2023-04-15T07:37:26;13.52;;;9.88;;
22470;SDS011;11402;51.374;6.594;2023-04-15T07:39:52;12.35;;;9.10;;
22470;SDS011;11402;51.374;6.594;2023-04-15T07:42:18;13.35;;;9.02;;
22470;SDS011;11402;51.374;6.594;2023-04-15T07:44:44;10.07;;;7.75;;
22470;SDS011;11402;51.374;6.594;2023-04-15T07:47:09;10.27;;;7.57;;
22470;SDS011;11402;51.374;6.594;2023-04-15T07:49:35;11.25;;;7.78;;
22470;SDS011;11402;51.374;6.594;2023-04-15T07:52:01;8.98;;;7.20;;
22470;SDS011;11402;51.374;6.594;2023-04-15T07:54:27;10.13;;;7.13;;
22470;SDS011;11402;51.374;6.594;2023-04-15T07:56:52;8.13;;;6.50;;
22470;SDS011;11402;51.374;6.594;2023-04-15T07:59:18;7.32;;;5.30;;
22470;SDS011;11402;51.374;6.594;2023-04-15T08:01:44;8.98;;;5.38;;
22470;SDS011;11402;51.374;6.594;2023-04-15T08:04:09;5.70;;;4.47;;
22470;SDS011;11402;51.374;6.594;2023-04-15T08:06:35;9.70;;;4.63;;
22470;SDS011;11402;51.374;6.594;2023-04-15T08:09:03;7.63;;;4.57;;
22470;SDS011;11402;51.374;6.594;2023-04-15T08:11:29;5.47;;;4.68;;
22470;SDS011;11402;51.374;6.594;2023-04-15T08:13:55;6.07;;;4.10;;
22470;SDS011;11402;51.374;6.594;2023-04-15T08:16:22;6.03;;;3.97;;
22470;SDS011;11402;51.374;6.594;2023-04-15T08:18:49;5.68;;;4.10;;
22470;SDS011;11402;51.374;6.594;2023-04-15T08:21:17;5.53;;;4.15;;
22470;SDS011;11402;51.374;6.594;2023-04-15T08:23:44;4.90;;;3.80;;
22470;SDS011;11402;51.374;6.594;2023-04-15T08:26:10;7.50;;;3.80;;
22470;SDS011;11402;51.374;6.594;2023-04-15T08:28:37;6.18;;;3.60;;
22470;SDS011;11402;51.374;6.594;2023-04-15T08:31:04;5.28;;;3.78;;
22470;SDS011;11402;51.374;6.594;2023-04-15T08:33:30;6.38;;;4.03;;
22470;SDS011;11402;51.374;6.594;2023-04-15T08:35:55;6.80;;;4.65;;
22470;SDS011;11402;51.374;6.594;2023-04-15T08:38:21;6.07;;;4.28;;
22470;SDS011;11402;51.374;6.594;2023-04-15T08:40:47;6.57;;;4.53;;
22470;SDS011;11402;51.374;6.594;2023-04-15T08:43:27;6.25;;;4.55;;
22470;SDS011;11402;51.374;6.594;2023-04-15T08:45:57;7.88;;;4.50;;
22470;SDS011;11402;51.374;6.594;2023-04-15T08:48:26;5.32;;;3.92;;
22470;SDS011;11402;51.374;6.594;2023-04-15T08:50:53;6.18;;;3.60;;
22470;SDS011;11402;51.374;6.594;2023-04-15T08:53:19;4.68;;;3.22;;
22470;SDS011;11402;51.374;6.594;2023-04-15T08:55:45;7.03;;;4.00;;
22470;SDS011;11402;51.374;6.594;2023-04-15T08:58:15;4.43;;;3.20;;
22470;SDS011;11402;51.374;6.594;2023-04-15T09:00:42;6.45;;;3.42;;
22470;SDS011;11402;51.374;6.594;2023-04-15T09:03:07;5.07;;;3.83;;
22470;SDS011;11402;51.374;6.594;2023-04-15T09:05:36;4.75;;;3.35;;
22470;SDS011;11402;51.374;6.594;2023-04-15T09:08:03;5.35;;;3.85;;
22470;SDS011;11402;51.374;6.594;2023-04-15T09:10:29;5.57;;;3.80;;
22470;SDS011;11402;51.374;6.594;2023-04-15T09:12:56;5.80;;;3.67;;
22470;SDS011;11402;51.374;6.594;2023-04-15T09:15:25;5.60;;;4.20;;
22470;SDS011;11402;51.374;6.594;2023-04-15T09:17:54;6.40;;;4.15;;
22470;SDS011;11402;51.374;6.594;2023-04-15T09:20:20;4.32;;;3.30;;
22470;SDS011;11402;51.374;6.594;2023-04-15T09:22:47;4.63;;;3.50;;
22470;SDS011;11402;51.374;6.594;2023-04-15T09:27:49;6.47;;;4.15;;
22470;SDS011;11402;51.374;6.594;2023-04-15T09:30:15;4.22;;;3.30;;
22470;SDS011;11402;51.374;6.594;2023-04-15T09:32:51;3.67;;;3.22;;
22470;SDS011;11402;51.374;6.594;2023-04-15T09:35:22;4.32;;;3.28;;
22470;SDS011;11402;51.374;6.594;2023-04-15T09:37:48;5.35;;;4.45;;
22470;SDS011;11402;51.374;6.594;2023-04-15T09:40:14;4.18;;;3.20;;
22470;SDS011;11402;51.374;6.594;2023-04-15T09:43:06;4.28;;;3.28;;
22470;SDS011;11402;51.374;6.594;2023-04-15T09:45:32;3.90;;;3.05;;
22470;SDS011;11402;51.374;6.594;2023-04-15T09:48:00;4.13;;;3.40;;
22470;SDS011;11402;51.374;6.594;2023-04-15T09:50:43;4.38;;;3.75;;
22470;SDS011;11402;51.374;6.594;2023-04-15T09:53:09;6.85;;;3.72;;
22470;SDS011;11402;51.374;6.594;2023-04-15T09:55:37;4.47;;;3.50;;
22470;SDS011;11402;51.374;6.594;2023-04-15T09:58:07;6.00;;;4.00;;
22470;SDS011;11402;51.374;6.594;2023-04-15T10:00:41;4.47;;;3.47;;
22470;SDS011;11402;51.374;6.594;2023-04-15T10:03:07;6.30;;;3.65;;
22470;SDS011;11402;51.374;6.594;2023-04-15T10:05:32;5.60;;;3.95;;
22470;SDS011;11402;51.374;6.594;2023-04-15T10:07:59;5.97;;;3.83;;
22470;SDS011;11402;51.374;6.594;2023-04-15T10:10:26;7.43;;;4.63;;
22470;SDS011;11402;51.374;6.594;2023-04-15T10:12:52;8.40;;;6.68;;
22470;SDS011;11402;51.374;6.594;2023-04-15T10:15:19;7.57;;;5.00;;
22470;SDS011;11402;51.374;6.594;2023-04-15T10:17:46;7.10;;;4.18;;
22470;SDS011;11402;51.374;6.594;2023-04-15T10:20:14;4.68;;;3.30;;
22470;SDS011;11402;51.374;6.594;2023-04-15T10:22:43;4.55;;;3.40;;
22470;SDS011;11402;51.374;6.594;2023-04-15T10:25:10;5.95;;;4.22;;
22470;SDS011;11402;51.374;6.594;2023-04-15T10:27:37;5.47;;;4.65;;
22470;SDS011;11402;51.374;6.594;2023-04-15T10:30:06;4.25;;;3.30;;
22470;SDS011;11402;51.374;6.594;2023-04-15T10:32:33;3.88;;;3.28;;
22470;SDS011;11402;51.374;6.594;2023-04-15T10:34:59;4.18;;;3.53;;
22470;SDS011;11402;51.374;6.594;2023-04-15T10:37:34;5.90;;;3.80;;
22470;SDS011;11402;51.374;6.594;2023-04-15T10:40:22;4.43;;;3.20;;
22470;SDS011;11402;51.374;6.594;2023-04-15T10:42:55;6.05;;;4.00;;
22470;SDS011;11402;51.374;6.594;2023-04-15T10:45:26;5.40;;;4.20;;
22470;SDS011;11402;51.374;6.594;2023-04-15T10:48:02;5.95;;;3.92;;
22470;SDS011;11402;51.374;6.594;2023-04-15T10:50:30;5.25;;;3.67;;
22470;SDS011;11402;51.374;6.594;2023-04-15T10:52:57;4.97;;;3.40;;
22470;SDS011;11402;51.374;6.594;2023-04-15T10:55:24;5.43;;;4.50;;
22470;SDS011;11402;51.374;6.594;2023-04-15T10:57:59;6.07;;;4.53;;
22470;SDS011;11402;51.374;6.594;2023-04-15T11:00:27;6.60;;;4.78;;
22470;SDS011;11402;51.374;6.594;2023-04-15T11:02:55;5.85;;;5.13;;
22470;SDS011;11402;51.374;6.594;2023-04-15T11:08:06;5.72;;;4.70;;
22470;SDS011;11402;51.374;6.594;2023-04-15T11:13:02;6.43;;;4.40;;
22470;SDS011;11402;51.374;6.594;2023-04-15T11:15:32;5.35;;;4.43;;
22470;SDS011;11402;51.374;6.594;2023-04-15T11:20:50;5.30;;;4.10;;
22470;SDS011;11402;51.374;6.594;2023-04-15T11:23:28;4.20;;;3.28;;
22470;SDS011;11402;51.374;6.594;2023-04-15T11:25:55;4.28;;;3.15;;
22470;SDS011;11402;51.374;6.594;2023-04-15T11:28:24;4.18;;;3.20;;
22470;SDS011;11402;51.374;6.594;2023-04-15T11:30:51;4.38;;;3.38;;
22470;SDS011;11402;51.374;6.594;2023-04-15T11:33:16;5.25;;;3.58;;
22470;SDS011;11402;51.374;6.594;2023-04-15T11:35:42;4.50;;;3.35;;
22470;SDS011;11402;51.374;6.594;2023-04-15T11:38:09;3.88;;;3.28;;
22470;SDS011;11402;51.374;6.594;2023-04-15T11:40:36;3.90;;;3.25;;
22470;SDS011;11402;51.374;6.594;2023-04-15T11:43:20;4.57;;;3.60;;
22470;SDS011;11402;51.374;6.594;2023-04-15T11:45:54;6.88;;;4.70;;
22470;SDS011;11402;51.374;6.594;2023-04-15T11:48:22;7.90;;;5.32;;
22470;SDS011;11402;51.374;6.594;2023-04-15T11:50:53;7.57;;;5.57;;
22470;SDS011;11402;51.374;6.594;2023-04-15T11:53:21;6.72;;;4.38;;
22470;SDS011;11402;51.374;6.594;2023-04-15T11:55:48;4.97;;;4.10;;
22470;SDS011;11402;51.374;6.594;2023-04-15T11:58:21;4.88;;;4.00;;
22470;SDS011;11402;51.374;6.594;2023-04-15T12:00:56;5.90;;;4.18;;
22470;SDS011;11402;51.374;6.594;2023-04-15T12:03:31;4.45;;;3.58;;
22470;SDS011;11402;51.374;6.594;2023-04-15T12:06:02;5.53;;;4.35;;
22470;SDS011;11402;51.374;6.594;2023-04-15T12:11:34;5.15;;;3.97;;
22470;SDS011;11402;51.374;6.594;2023-04-15T12:16:31;6.55;;;4.18;;
22470;SDS011;11402;51.374;6.594;2023-04-15T12:19:09;5.40;;;4.40;;
22470;SDS011;11402;51.374;6.594;2023-04-15T12:21:37;5.93;;;4.10;;
22470;SDS011;11402;51.374;6.594;2023-04-15T12:24:05;4.65;;;3.45;;
22470;SDS011;11402;51.374;6.594;2023-04-15T12:29:00;5.13;;;3.05;;
22470;SDS011;11402;51.374;6.594;2023-04-15T12:31:26;5.13;;;3.92;;
22470;SDS011;11402;51.374;6.594;2023-04-15T12:33:55;5.15;;;3.33;;
22470;SDS011;11402;51.374;6.594;2023-04-15T12:36:22;4.55;;;3.38;;
22470;SDS011;11402;51.374;6.594;2023-04-15T12:38:48;5.00;;;3.67;;
22470;SDS011;11402;51.374;6.594;2023-04-15T12:41:14;4.28;;;3.35;;
22470;SDS011;11402;51.374;6.594;2023-04-15T12:43:40;3.75;;;2.95;;
22470;SDS011;11402;51.374;6.594;2023-04-15T12:46:06;4.05;;;3.20;;
22470;SDS011;11402;51.374;6.594;2023-04-15T12:48:32;6.32;;;3.65;;
22470;SDS011;11402;51.374;6.594;2023-04-15T12:50:58;5.70;;;3.97;;
22470;SDS011;11402;51.374;6.594;2023-04-15T12:53:24;5.82;;;3.95;;
22470;SDS011;11402;51.374;6.594;2023-04-15T12:55:50;7.88;;;4.55;;
22470;SDS011;11402;51.374;6.594;2023-04-15T12:58:16;6.25;;;4.20;;
22470;SDS011;11402;51.374;6.594;2023-04-15T13:00:42;7.20;;;4.30;;
22470;SDS011;11402;51.374;6.594;2023-04-15T13:03:08;6.03;;;3.58;;
22470;SDS011;11402;51.374;6.594;2023-04-15T13:05:34;4.40;;;3.50;;
22470;SDS011;11402;51.374;6.594;2023-04-15T13:08:01;4.88;;;3.28;;
22470;SDS011;11402;51.374;6.594;2023-04-15T13:10:27;4.65;;;3.78;;
22470;SDS011;11402;51.374;6.594;2023-04-15T13:12:53;5.60;;;3.60;;
22470;SDS011;11402;51.374;6.594;2023-04-15T13:15:20;6.47;;;3.90;;
22470;SDS011;11402;51.374;6.594;2023-04-15T13:17:46;5.97;;;3.50;;
22470;SDS011;11402;51.374;6.594;2023-04-15T13:20:12;4.05;;;3.53;;
22470;SDS011;11402;51.374;6.594;2023-04-15T13:22:39;6.50;;;3.40;;
22470;SDS011;11402;51.374;6.594;2023-04-15T13:25:05;4.32;;;3.00;;
22470;SDS011;11402;51.374;6.594;2023-04-15T13:27:31;6.72;;;3.10;;
22470;SDS011;11402;51.374;6.594;2023-04-15T13:29:57;5.25;;;3.28;;
22470;SDS011;11402;51.374;6.594;2023-04-15T13:32:23;5.25;;;3.10;;
22470;SDS011;11402;51.374;6.594;2023-04-15T13:34:49;5.25;;;3.50;;
22470;SDS011;11402;51.374;6.594;2023-04-15T13:37:15;4.47;;;3.25;;
22470;SDS011;11402;51.374;6.594;2023-04-15T13:39:41;3.88;;;2.60;;
22470;SDS011;11402;51.374;6.594;2023-04-15T13:42:06;5.05;;;3.22;;
22470;SDS011;11402;51.374;6.594;2023-04-15T13:44:32;6.82;;;3.22;;
22470;SDS011;11402;51.374;6.594;2023-04-15T13:46:57;4.90;;;3.30;;
22470;SDS011;11402;51.374;6.594;2023-04-15T13:49:23;3.90;;;2.85;;
22470;SDS011;11402;51.374;6.594;2023-04-15T13:51:49;3.90;;;2.63;;
22470;SDS011;11402;51.374;6.594;2023-04-15T13:54:15;5.80;;;3.40;;
22470;SDS011;11402;51.374;6.594;2023-04-15T13:56:40;5.82;;;3.65;;
22470;SDS011;11402;51.374;6.594;2023-04-15T13:59:06;5.07;;;3.47;;
22470;SDS011;11402;51.374;6.594;2023-04-15T14:01:33;5.13;;;3.67;;
22470;SDS011;11402;51.374;6.594;2023-04-15T14:03:58;4.40;;;2.90;;
22470;SDS011;11402;51.374;6.594;2023-04-15T14:06:24;6.32;;;3.55;;
22470;SDS011;11402;51.374;6.594;2023-04-15T14:08:51;5.47;;;3.80;;
22470;SDS011;11402;51.374;6.594;2023-04-15T14:11:16;5.30;;;3.85;;
22470;SDS011;11402;51.374;6.594;2023-04-15T14:13:42;5.13;;;3.65;;
22470;SDS011;11402;51.374;6.594;2023-04-15T14:16:08;5.50;;;3.75;;
22470;SDS011;11402;51.374;6.594;2023-04-15T14:18:34;5.85;;;3.53;;
22470;SDS011;11402;51.374;6.594;2023-04-15T14:21:01;6.53;;;3.47;;
22470;SDS011;11402;51.374;6.594;2023-04-15T14:23:26;5.20;;;3.45;;
22470;SDS011;11402;51.374;6.594;2023-04-15T14:25:52;5.55;;;3.42;;
22470;SDS011;11402;51.374;6.594;2023-04-15T14:28:17;5.65;;;3.45;;
22470;SDS011;11402;51.374;6.594;2023-04-15T14:30:43;6.18;;;3.63;;
22470;SDS011;11402;51.374;6.594;2023-04-15T14:33:08;4.47;;;2.63;;
22470;SDS011;11402;51.374;6.594;2023-04-15T14:35:34;4.15;;;2.92;;
22470;SDS011;11402;51.374;6.594;2023-04-15T14:38:00;4.53;;;3.38;;
22470;SDS011;11402;51.374;6.594;2023-04-15T14:40:25;4.22;;;2.80;;
22470;SDS011;11402;51.374;6.594;2023-04-15T14:42:51;5.63;;;3.00;;
22470;SDS011;11402;51.374;6.594;2023-04-15T14:45:16;4.90;;;3.05;;
22470;SDS011;11402;51.374;6.594;2023-04-15T14:47:42;4.85;;;2.85;;
22470;SDS011;11402;51.374;6.594;2023-04-15T14:50:08;6.40;;;3.20;;
22470;SDS011;11402;51.374;6.594;2023-04-15T14:52:34;3.70;;;2.70;;
22470;SDS011;11402;51.374;6.594;2023-04-15T14:55:06;6.18;;;2.35;;